Time,TemperatureF,DewpointF,PressureIn,WindDirection,WindDirectionDegrees,WindSpeedMPH,WindSpeedGustMPH,Humidity,HourlyPrecipIn,Conditions,Clouds,dailyrainin,SoftwareType,DateUTC
2013-06-09 01:00:00,59.0,59.0,-100.00,WSW,250,8.0,-999.0,100,-99.99,,,-99.99,,2013-06-09 01:00:00,
2013-06-09 01:21:00,59.0,59.0,-100.00,WSW,250,8.0,-999.0,100,-99.99,,,-99.99,,2013-06-09 01:21:00,
2013-06-09 01:31:00,59.0,59.0,-100.00,WSW,250,8.0,-999.0,100,-99.99,,,-99.99,,2013-06-09 01:31:00,
2013-06-09 01:41:00,59.0,59.0,-100.00,WSW,250,8.0,-999.0,100,-99.99,,,-99.99,,2013-06-09 01:41:00,
2013-06-09 01:52:00,59.0,59.0,-100.00,WSW,250,8.0,-999.0,100,-99.99,,,-99.99,,2013-06-09 01:52:00,
2013-06-09 02:00:00,59.0,59.0,-100.00,SW,230,5.0,-999.0,100,-99.99,,,-99.99,,2013-06-09 02:00:00,
2013-06-09 02:21:00,59.0,59.0,-100.00,SW,230,5.0,-999.0,100,-99.99,,,-99.99,,2013-06-09 02:21:00,
2013-06-09 02:32:00,59.0,59.0,-100.00,SW,230,5.0,-999.0,100,-99.99,,,-99.99,,2013-06-09 02:32:00,
2013-06-09 02:41:00,59.0,59.0,-100.00,SW,230,5.0,-999.0,100,-99.99,,,-99.99,,2013-06-09 02:41:00,
2013-06-09 02:52:00,59.0,59.0,-100.00,SW,230,5.0,-999.0,100,-99.99,,,-99.99,,2013-06-09 02:52:00,
2013-06-09 03:00:00,59.0,59.0,-100.00,WSW,250,10.0,-999.0,100,-99.99,,,-99.99,,2013-06-09 03:00:00,
2013-06-09 03:21:00,59.0,59.0,-100.00,WSW,250,10.0,-999.0,100,-99.99,,,-99.99,,2013-06-09 03:21:00,
2013-06-09 03:32:00,59.0,59.0,-100.00,WSW,250,10.0,-999.0,100,-99.99,,,-99.99,,2013-06-09 03:32:00,
2013-06-09 03:43:00,59.0,59.0,-100.00,WSW,250,10.0,-999.0,100,-99.99,,,-99.99,,2013-06-09 03:43:00,
2013-06-09 03:53:00,59.0,59.0,-100.00,WSW,250,10.0,-999.0,100,-99.99,,,-99.99,,2013-06-09 03:53:00,
2013-06-09 04:00:00,58.0,58.0,-100.00,WSW,250,13.0,-999.0,100,-99.99,,,-99.99,,2013-06-09 04:00:00,
2013-06-09 04:22:00,58.0,58.0,-100.00,WSW,250,13.0,-999.0,100,-99.99,,,-99.99,,2013-06-09 04:22:00,
2013-06-09 04:32:00,58.0,58.0,-100.00,WSW,250,13.0,-999.0,100,-99.99,,,-99.99,,2013-06-09 04:32:00,
2013-06-09 04:42:00,58.0,58.0,-100.00,WSW,250,13.0,-999.0,100,-99.99,,,-99.99,,2013-06-09 04:42:00,
2013-06-09 04:52:00,58.0,58.0,-100.00,WSW,250,13.0,-999.0,100,-99.99,,,-99.99,,2013-06-09 04:52:00,
2013-06-09 05:00:00,59.0,59.0,-100.00,WSW,240,13.0,-999.0,100,-99.99,,,-99.99,,2013-06-09 05:00:00,
2013-06-09 05:21:00,59.0,59.0,-100.00,WSW,240,13.0,-999.0,100,-99.99,,,-99.99,,2013-06-09 05:21:00,
2013-06-09 05:32:00,59.0,59.0,-100.00,WSW,240,13.0,-999.0,100,-99.99,,,-99.99,,2013-06-09 05:32:00,
2013-06-09 05:42:00,59.0,59.0,-100.00,WSW,240,13.0,-999.0,100,-99.99,,,-99.99,,2013-06-09 05:42:00,
2013-06-09 05:52:00,59.0,59.0,-100.00,WSW,240,13.0,-999.0,100,-99.99,,,-99.99,,2013-06-09 05:52:00,
2013-06-09 06:00:00,59.0,59.0,-100.00,WSW,240,10.0,-999.0,100,-99.99,,,-99.99,,2013-06-09 06:00:00,
2013-06-09 06:21:00,59.0,59.0,-100.00,WSW,240,10.0,-999.0,100,-99.99,,,-99.99,,2013-06-09 06:21:00,
2013-06-09 06:31:00,59.0,59.0,-100.00,WSW,240,10.0,-999.0,100,-99.99,,,-99.99,,2013-06-09 06:31:00,
2013-06-09 06:42:00,59.0,59.0,-100.00,WSW,240,10.0,-999.0,100,-99.99,,,-99.99,,2013-06-09 06:42:00,
2013-06-09 06:52:00,59.0,59.0,-100.00,WSW,240,10.0,-999.0,100,-99.99,,,-99.99,,2013-06-09 06:52:00,
2013-06-09 07:00:00,58.0,58.0,-100.00,SW,230,11.0,-999.0,100,-99.99,,,-99.99,,2013-06-09 07:00:00,
2013-06-09 07:21:00,58.0,58.0,-100.00,SW,230,11.0,-999.0,100,-99.99,,,-99.99,,2013-06-09 07:21:00,
2013-06-09 07:32:00,58.0,58.0,-100.00,SW,230,11.0,-999.0,100,-99.99,,,-99.99,,2013-06-09 07:32:00,
2013-06-09 07:42:00,58.0,58.0,-100.00,SW,230,11.0,-999.0,100,-99.99,,,-99.99,,2013-06-09 07:42:00,
2013-06-09 07:52:00,58.0,58.0,-100.00,SW,230,11.0,-999.0,100,-99.99,,,-99.99,,2013-06-09 07:52:00,
2013-06-09 08:00:00,57.0,57.0,-100.00,WSW,250,9.0,-999.0,100,-99.99,,,-99.99,,2013-06-09 08:00:00,
2013-06-09 08:22:00,57.0,57.0,-100.00,WSW,250,9.0,-999.0,100,-99.99,,,-99.99,,2013-06-09 08:22:00,
2013-06-09 08:31:00,57.0,57.0,-100.00,WSW,250,9.0,-999.0,100,-99.99,,,-99.99,,2013-06-09 08:31:00,
2013-06-09 08:41:00,57.0,57.0,-100.00,WSW,250,9.0,-999.0,100,-99.99,,,-99.99,,2013-06-09 08:41:00,
2013-06-09 08:52:00,57.0,57.0,-100.00,WSW,250,9.0,-999.0,100,-99.99,,,-99.99,,2013-06-09 08:52:00,
2013-06-09 09:00:00,57.0,57.0,-100.00,WSW,240,8.0,-999.0,100,-99.99,,,-99.99,,2013-06-09 09:00:00,
2013-06-09 09:21:00,57.0,57.0,-100.00,WSW,240,8.0,-999.0,100,-99.99,,,-99.99,,2013-06-09 09:21:00,
2013-06-09 09:32:00,57.0,57.0,-100.00,WSW,240,8.0,-999.0,100,-99.99,,,-99.99,,2013-06-09 09:32:00,
2013-06-09 09:42:00,57.0,57.0,-100.00,WSW,240,8.0,-999.0,100,-99.99,,,-99.99,,2013-06-09 09:42:00,
2013-06-09 09:52:00,57.0,57.0,-100.00,WSW,240,8.0,-999.0,100,-99.99,,,-99.99,,2013-06-09 09:52:00,
2013-06-09 10:00:00,57.0,57.0,-100.00,WSW,250,11.0,-999.0,100,-99.99,,,-99.99,,2013-06-09 10:00:00,
2013-06-09 10:22:00,57.0,57.0,-100.00,WSW,250,11.0,-999.0,100,-99.99,,,-99.99,,2013-06-09 10:22:00,
2013-06-09 10:32:00,57.0,57.0,-100.00,WSW,250,11.0,-999.0,100,-99.99,,,-99.99,,2013-06-09 10:32:00,
2013-06-09 10:42:00,57.0,57.0,-100.00,WSW,250,11.0,-999.0,100,-99.99,,,-99.99,,2013-06-09 10:42:00,
2013-06-09 10:52:00,57.0,57.0,-100.00,WSW,250,11.0,-999.0,100,-99.99,,,-99.99,,2013-06-09 10:52:00,
2013-06-09 11:00:00,57.0,57.0,-100.00,SW,220,7.0,-999.0,100,-99.99,,,-99.99,,2013-06-09 11:00:00,
2013-06-09 11:22:00,57.0,57.0,-100.00,SW,220,7.0,-999.0,100,-99.99,,,-99.99,,2013-06-09 11:22:00,
2013-06-09 11:32:00,57.0,57.0,-100.00,SW,220,7.0,-999.0,100,-99.99,,,-99.99,,2013-06-09 11:32:00,
2013-06-09 11:41:00,57.0,57.0,-100.00,SW,220,7.0,-999.0,100,-99.99,,,-99.99,,2013-06-09 11:41:00,
2013-06-09 11:52:00,57.0,57.0,-100.00,SW,220,7.0,-999.0,100,-99.99,,,-99.99,,2013-06-09 11:52:00,
2013-06-09 12:00:00,57.0,57.0,-100.00,SW,230,18.0,-999.0,100,-99.99,,,-99.99,,2013-06-09 12:00:00,
2013-06-09 12:22:00,57.0,57.0,-100.00,SW,230,18.0,-999.0,100,-99.99,,,-99.99,,2013-06-09 12:22:00,
2013-06-09 12:31:00,57.0,57.0,-100.00,SW,230,18.0,-999.0,100,-99.99,,,-99.99,,2013-06-09 12:31:00,
2013-06-09 12:42:00,57.0,57.0,-100.00,SW,230,18.0,-999.0,100,-99.99,,,-99.99,,2013-06-09 12:42:00,
2013-06-09 12:52:00,57.0,57.0,-100.00,SW,230,18.0,-999.0,100,-99.99,,,-99.99,,2013-06-09 12:52:00,
2013-06-09 13:00:00,58.0,58.0,-100.00,WSW,240,17.0,-999.0,100,-99.99,,,-99.99,,2013-06-09 13:00:00,
2013-06-09 13:22:00,58.0,58.0,-100.00,WSW,240,17.0,-999.0,100,-99.99,,,-99.99,,2013-06-09 13:22:00,
2013-06-09 13:31:00,58.0,58.0,-100.00,WSW,240,17.0,-999.0,100,-99.99,,,-99.99,,2013-06-09 13:31:00,
2013-06-09 13:42:00,58.0,58.0,-100.00,WSW,240,17.0,-999.0,100,-99.99,,,-99.99,,2013-06-09 13:42:00,
2013-06-09 13:52:00,58.0,58.0,-100.00,WSW,240,17.0,-999.0,100,-99.99,,,-99.99,,2013-06-09 13:52:00,
2013-06-09 14:00:00,59.0,58.0,-100.00,SW,220,11.0,-999.0,97,-99.99,,,-99.99,,2013-06-09 14:00:00,
2013-06-09 14:21:00,59.0,58.0,-100.00,SW,220,11.0,-999.0,97,-99.99,,,-99.99,,2013-06-09 14:21:00,
2013-06-09 14:32:00,59.0,58.0,-100.00,SW,220,11.0,-999.0,97,-99.99,,,-99.99,,2013-06-09 14:32:00,
2013-06-09 14:42:00,59.0,58.0,-100.00,SW,220,11.0,-999.0,97,-99.99,,,-99.99,,2013-06-09 14:42:00,
2013-06-09 14:51:00,59.0,58.0,-100.00,SW,220,11.0,-999.0,97,-99.99,,,-99.99,,2013-06-09 14:51:00,
2013-06-09 15:00:00,63.0,58.0,-100.00,WSW,240,10.0,-999.0,83,-99.99,,,-99.99,,2013-06-09 15:00:00,
2013-06-09 15:21:00,63.0,58.0,-100.00,WSW,240,10.0,-999.0,83,-99.99,,,-99.99,,2013-06-09 15:21:00,
2013-06-09 15:32:00,63.0,58.0,-100.00,WSW,240,10.0,-999.0,83,-99.99,,,-99.99,,2013-06-09 15:32:00,
2013-06-09 15:43:00,63.0,58.0,-100.00,WSW,240,10.0,-999.0,83,-99.99,,,-99.99,,2013-06-09 15:43:00,
2013-06-09 15:53:00,63.0,58.0,-100.00,WSW,240,10.0,-999.0,83,-99.99,,,-99.99,,2013-06-09 15:53:00,
2013-06-09 16:00:00,64.0,59.0,30.15,WSW,240,11.0,-999.0,83,-99.99,,,-99.99,,2013-06-09 16:00:00,
2013-06-09 16:23:00,64.0,59.0,30.15,WSW,240,11.0,-999.0,83,-99.99,,,-99.99,,2013-06-09 16:23:00,
2013-06-09 16:33:00,64.0,59.0,30.15,WSW,240,11.0,-999.0,83,-99.99,,,-99.99,,2013-06-09 16:33:00,
2013-06-09 16:42:00,64.0,59.0,30.15,WSW,240,11.0,-999.0,83,-99.99,,,-99.99,,2013-06-09 16:42:00,
2013-06-09 16:52:00,64.0,59.0,30.15,WSW,240,11.0,-999.0,83,-99.99,,,-99.99,,2013-06-09 16:52:00,
2013-06-09 17:00:00,60.0,56.0,30.15,SW,230,13.0,-999.0,87,-99.99,,,-99.99,,2013-06-09 17:00:00,
2013-06-09 17:22:00,60.0,56.0,30.15,SW,230,13.0,-999.0,87,-99.99,,,-99.99,,2013-06-09 17:22:00,
2013-06-09 17:32:00,60.0,56.0,30.15,SW,230,13.0,-999.0,87,-99.99,,,-99.99,,2013-06-09 17:32:00,
2013-06-09 17:42:00,60.0,56.0,30.15,SW,230,13.0,-999.0,87,-99.99,,,-99.99,,2013-06-09 17:42:00,
2013-06-09 17:52:00,60.0,56.0,30.15,SW,230,13.0,-999.0,87,-99.99,,,-99.99,,2013-06-09 17:52:00,
2013-06-09 18:00:00,57.0,55.0,30.15,SSW,210,13.0,-999.0,93,-99.99,,,-99.99,,2013-06-09 18:00:00,
2013-06-09 18:21:00,57.0,55.0,30.15,SSW,210,13.0,-999.0,93,-99.99,,,-99.99,,2013-06-09 18:21:00,
2013-06-09 18:32:00,57.0,55.0,30.15,SSW,210,13.0,-999.0,93,-99.99,,,-99.99,,2013-06-09 18:32:00,
2013-06-09 18:42:00,57.0,55.0,30.15,SSW,210,13.0,-999.0,93,-99.99,,,-99.99,,2013-06-09 18:42:00,
2013-06-09 18:52:00,57.0,55.0,30.15,SSW,210,13.0,-999.0,93,-99.99,,,-99.99,,2013-06-09 18:52:00,
2013-06-09 19:00:00,57.0,53.0,30.14,WSW,240,16.0,-999.0,88,-99.99,,,-99.99,,2013-06-09 19:00:00,
2013-06-09 19:21:00,57.0,53.0,30.14,WSW,240,16.0,-999.0,88,-99.99,,,-99.99,,2013-06-09 19:21:00,
2013-06-09 19:32:00,57.0,53.0,30.14,WSW,240,16.0,-999.0,88,-99.99,,,-99.99,,2013-06-09 19:32:00,
2013-06-09 19:41:00,57.0,53.0,30.14,WSW,240,16.0,-999.0,88,-99.99,,,-99.99,,2013-06-09 19:41:00,
2013-06-09 19:52:00,57.0,53.0,30.14,WSW,240,16.0,-999.0,88,-99.99,,,-99.99,,2013-06-09 19:52:00,
2013-06-09 20:00:00,57.0,53.0,30.15,West,270,8.0,-999.0,85,-99.99,,,-99.99,,2013-06-09 20:00:00,
2013-06-09 20:22:00,57.0,53.0,30.15,West,270,8.0,-999.0,85,-99.99,,,-99.99,,2013-06-09 20:22:00,
2013-06-09 20:32:00,57.0,53.0,30.15,West,270,8.0,-999.0,85,-99.99,,,-99.99,,2013-06-09 20:32:00,
2013-06-09 20:42:00,57.0,53.0,30.15,West,270,8.0,-999.0,85,-99.99,,,-99.99,,2013-06-09 20:42:00,
2013-06-09 20:52:00,57.0,53.0,30.15,West,270,8.0,-999.0,85,-99.99,,,-99.99,,2013-06-09 20:52:00,
2013-06-09 21:00:00,62.0,49.0,30.14,West,270,8.0,-999.0,62,-99.99,,,-99.99,,2013-06-09 21:00:00,
2013-06-09 21:21:00,62.0,49.0,30.14,West,270,8.0,-999.0,62,-99.99,,,-99.99,,2013-06-09 21:21:00,
2013-06-09 21:33:00,62.0,49.0,30.14,West,270,8.0,-999.0,62,-99.99,,,-99.99,,2013-06-09 21:33:00,
2013-06-09 21:42:00,62.0,49.0,30.14,West,270,8.0,-999.0,62,-99.99,,,-99.99,,2013-06-09 21:42:00,
2013-06-09 21:53:00,62.0,49.0,30.14,West,270,8.0,-999.0,62,-99.99,,,-99.99,,2013-06-09 21:53:00,
2013-06-09 22:00:00,65.0,50.0,30.14,North,350,3.0,-999.0,58,-99.99,,,-99.99,,2013-06-09 22:00:00,
2013-06-09 22:22:00,65.0,50.0,30.14,North,350,3.0,-999.0,58,-99.99,,,-99.99,,2013-06-09 22:22:00,
2013-06-09 22:32:00,65.0,50.0,30.14,North,350,3.0,-999.0,58,-99.99,,,-99.99,,2013-06-09 22:32:00,
2013-06-09 22:42:00,65.0,50.0,30.14,North,350,3.0,-999.0,58,-99.99,,,-99.99,,2013-06-09 22:42:00,
2013-06-09 22:52:00,65.0,50.0,30.14,North,350,3.0,-999.0,58,-99.99,,,-99.99,,2013-06-09 22:52:00,
2013-06-09 23:00:00,64.0,52.0,30.14,East,80,3.0,-999.0,64,-99.99,,,-99.99,,2013-06-09 23:00:00,
2013-06-09 23:22:00,64.0,52.0,30.14,East,80,3.0,-999.0,64,-99.99,,,-99.99,,2013-06-09 23:22:00,
2013-06-09 23:32:00,64.0,52.0,30.14,East,80,3.0,-999.0,64,-99.99,,,-99.99,,2013-06-09 23:32:00,
2013-06-09 23:42:00,64.0,52.0,30.14,East,80,3.0,-999.0,64,-99.99,,,-99.99,,2013-06-09 23:42:00,
2013-06-09 23:52:00,64.0,52.0,30.14,East,80,3.0,-999.0,64,-99.99,,,-99.99,,2013-06-09 23:52:00,